Time;durP1;ratioP1;P1;durP2;ratioP2;P2;SDS_P1;SDS_P2;PMS_P1;PMS_P2;Temp;Humidity;BMP_temperature;BMP_pressure;BME280_temperature;BME280_humidity;BME280_pressure;Samples;Min_cycle;Max_cycle;Signal;HPM_P1;HPM_P2
2023/03/27 00:00:59;;;;;;;3.20;1.77;;;6.90;96.70;;;6.63;82.79;96627.94;5047668;28;20742;-69
2023/03/27 00:03:28;;;;;;;1.93;1.70;;;6.80;97.70;;;6.55;82.77;96625.56;5047397;28;21133;-69
2023/03/27 00:06:00;;;;;;;2.20;1.97;;;6.80;96.70;;;6.71;82.41;96640.22;5036828;28;20485;-68
2023/03/27 00:08:30;;;;;;;2.20;2.00;;;6.80;97.20;;;6.61;82.27;96639.97;5048835;28;20546;-68
2023/03/27 00:10:58;;;;;;;3.40;2.00;;;6.80;97.20;;;6.64;83.15;96636.81;5043209;28;20461;-69
2023/03/27 00:13:25;;;;;;;2.07;1.97;;;6.80;97.80;;;6.75;83.10;96641.44;5041639;28;21029;-68
2023/03/27 00:15:55;;;;;;;2.13;1.83;;;6.80;97.70;;;6.80;82.30;96641.59;5045993;28;20457;-70
2023/03/27 00:18:23;;;;;;;2.50;2.30;;;6.80;97.60;;;6.72;83.12;96636.50;5064750;28;20431;-68
2023/03/27 00:20:50;;;;;;;4.17;2.13;;;6.80;98.10;;;6.79;82.75;96636.44;5044259;28;20460;-68
2023/03/27 00:23:19;;;;;;;2.10;1.83;;;6.80;98.20;;;6.74;82.99;96639.78;5048036;28;20455;-68
2023/03/27 00:25:49;;;;;;;2.00;1.90;;;6.80;98.20;;;6.72;82.57;96636.50;5062973;28;20468;-69
2023/03/27 00:28:18;;;;;;;3.87;2.50;;;6.80;98.30;;;6.72;82.42;96625.75;5046974;28;20469;-68
2023/03/27 00:30:47;;;;;;;2.60;2.40;;;6.80;98.00;;;6.77;83.17;96638.53;5057241;28;20455;-69
2023/03/27 00:33:15;;;;;;;2.70;2.43;;;6.80;98.40;;;6.73;83.17;96631.97;5044191;28;20539;-68
2023/03/27 00:35:46;;;;;;;2.50;2.13;;;6.80;98.60;;;6.62;83.10;96637.03;5060055;28;20474;-67
2023/03/27 00:38:14;;;;;;;2.13;2.03;;;6.80;97.80;;;6.71;82.67;96626.81;5043280;28;20543;-69
2023/03/27 00:40:42;;;;;;;2.43;2.23;;;6.80;98.10;;;6.73;82.62;96629.28;5047998;28;20868;-68
2023/03/27 00:43:23;;;;;;;2.57;2.30;;;6.80;97.60;;;6.52;82.70;96631.34;5049754;28;20457;-67
2023/03/27 00:45:55;;;;;;;2.30;2.20;;;6.80;96.60;;;6.51;83.14;96630.56;5048303;28;20884;-69
2023/03/27 00:48:24;;;;;;;2.97;2.50;;;6.70;97.10;;;6.36;83.26;96627.41;5040425;28;20513;-67
2023/03/27 00:50:53;;;;;;;3.60;2.50;;;6.60;96.90;;;6.52;83.61;96631.34;5043155;28;20488;-70
2023/03/27 00:53:24;;;;;;;2.40;2.20;;;6.70;97.70;;;6.60;83.39;96641.81;5049110;28;20489;-68
2023/03/27 00:55:56;;;;;;;2.70;2.50;;;6.60;98.60;;;6.43;83.72;96628.16;5047643;28;20463;-69
2023/03/27 00:58:29;;;;;;;3.30;2.57;;;6.60;98.40;;;6.37;83.83;96634.41;5043583;28;20484;-70
2023/03/27 01:00:57;;;;;;;2.90;2.60;;;6.60;97.90;;;6.44;83.77;96637.03;5060328;28;20470;-69
2023/03/27 01:03:29;;;;;;;2.73;2.30;;;6.60;99.20;;;6.05;84.88;96588.94;5050759;28;20453;-69
2023/03/27 01:06:01;;;;;;;2.93;2.60;;;6.50;99.90;;;6.31;85.08;96624.59;5046441;28;20478;-70
2023/03/27 01:08:32;;;;;;;2.47;2.27;;;6.50;99.90;;;6.19;85.76;96622.63;5061296;28;20466;-68
2023/03/27 01:11:15;;;;;;;2.80;2.60;;;6.40;99.90;;;6.17;86.52;96630.09;5054236;28;20450;-69
2023/03/27 01:14:04;;;;;;;2.70;2.50;;;6.40;99.90;;;6.05;87.79;96638.00;5041673;28;20467;-69
2023/03/27 01:16:39;;;;;;;2.37;2.17;;;6.30;99.90;;;5.75;88.15;96653.91;5046368;28;20966;-70
2023/03/27 01:19:49;;;;;;;2.30;2.10;;;6.10;99.90;;;5.50;89.00;96620.72;5059508;28;20458;-69
2023/03/27 01:23:03;;;;;;;2.07;1.90;;;6.00;99.90;;;5.54;88.77;96645.22;5043169;28;20507;-69
2023/03/27 01:26:08;;;;;;;1.80;1.70;;;5.90;99.90;;;5.60;89.35;96649.69;5035658;28;20474;-69
2023/03/27 01:28:49;;;;;;;1.40;1.30;;;5.90;99.90;;;5.35;90.32;96663.06;5042803;28;20464;-67
2023/03/27 01:31:33;;;;;;;2.13;1.53;;;5.70;99.90;;;5.38;90.05;96658.09;5042297;28;20528;-68
2023/03/27 01:34:31;;;;;;;1.73;1.50;;;5.70;99.90;;;5.23;91.64;96642.31;5047538;28;20459;-71
2023/03/27 01:37:20;;;;;;;1.37;1.27;;;5.60;99.90;;;5.39;91.57;96672.28;5050384;28;20475;-69
2023/03/27 01:39:53;;;;;;;1.10;1.10;;;5.70;99.90;;;5.28;91.89;96673.81;5050054;28;20453;-69
2023/03/27 01:42:26;;;;;;;1.40;1.30;;;5.60;99.90;;;5.30;92.70;96679.75;5046383;28;20811;-70
2023/03/27 01:45:01;;;;;;;1.00;1.00;;;5.60;99.90;;;5.16;91.79;96680.88;5045486;28;20487;-68
2023/03/27 01:47:42;;;;;;;5.23;1.33;;;5.50;99.90;;;5.10;92.58;96686.06;5048651;28;20459;-68
2023/03/27 01:50:20;;;;;;;0.70;0.70;;;5.50;99.90;;;5.10;92.18;96688.72;5047221;28;20527;-69
2023/03/27 01:52:53;;;;;;;0.97;0.83;;;5.50;99.90;;;5.02;92.03;96699.66;5057910;28;20455;-69
2023/03/27 01:55:26;;;;;;;1.10;1.00;;;5.40;99.90;;;4.92;92.82;96710.00;5081435;28;20561;-70
2023/03/27 01:58:01;;;;;;;0.90;0.87;;;5.30;99.90;;;4.91;92.97;96709.19;5053691;28;20446;-69
2023/03/27 02:00:30;;;;;;;0.80;0.80;;;5.30;99.90;;;4.84;92.44;96720.94;5047207;28;20498;-69
2023/03/27 02:03:02;;;;;;;1.07;0.90;;;5.20;99.90;;;4.77;92.45;96723.63;5063748;28;20460;-70
2023/03/27 02:05:35;;;;;;;1.07;1.00;;;5.20;99.90;;;4.68;93.45;96723.84;5045573;28;20482;-70
2023/03/27 02:08:11;;;;;;;1.33;1.23;;;5.20;99.90;;;4.72;93.76;96740.31;5048395;28;20463;-70
2023/03/27 02:10:43;;;;;;;1.03;1.00;;;5.10;99.90;;;4.72;93.33;96737.63;5049241;28;20466;-69
2023/03/27 02:13:20;;;;;;;1.33;1.10;;;5.10;99.90;;;4.61;93.46;96746.28;5040836;28;20516;-70
2023/03/27 02:15:49;;;;;;;0.80;0.80;;;5.10;99.90;;;4.54;92.64;96752.50;5053494;28;20452;-70
2023/03/27 02:18:24;;;;;;;1.17;1.07;;;5.00;99.90;;;4.74;93.08;96767.69;5044355;28;20530;-70
2023/03/27 02:20:51;;;;;;;0.97;0.90;;;5.00;99.90;;;4.63;92.66;96761.13;5051497;28;20451;-69
2023/03/27 02:23:18;;;;;;;1.10;0.93;;;5.00;99.90;;;4.65;92.98;96780.47;5049860;28;20434;-70
2023/03/27 02:25:47;;;;;;;1.17;1.10;;;5.00;99.90;;;4.67;92.60;96793.66;5056278;28;20462;-70
2023/03/27 02:28:40;;;;;;;3.90;0.90;;;5.00;99.90;;;4.63;92.30;96803.94;5050639;28;20433;-71
2023/03/27 02:31:29;;;;;;;0.90;0.70;;;5.00;99.90;;;4.54;92.84;96795.28;5046922;28;20504;-70
2023/03/27 02:34:45;;;;;;;1.13;0.70;;;4.90;99.90;;;4.38;92.83;96812.56;5048787;28;20457;-69
2023/03/27 02:37:21;;;;;;;0.70;0.70;;;4.80;99.90;;;4.38;92.68;96814.44;5015482;28;20457;-70
2023/03/27 02:39:56;;;;;;;1.73;1.00;;;4.80;99.90;;;4.28;93.41;96814.00;5049050;28;20495;-71
2023/03/27 02:42:34;;;;;;;1.10;0.77;;;4.70;99.90;;;4.11;91.67;96828.59;5039462;28;20456;-69
2023/03/27 02:45:09;;;;;;;0.50;0.50;;;4.60;99.90;;;4.21;91.28;96843.41;5046378;28;20511;-69
2023/03/27 02:47:40;;;;;;;0.50;0.50;;;4.60;99.90;;;4.04;90.97;96845.66;5046863;28;20525;-68
2023/03/27 02:50:13;;;;;;;0.50;0.50;;;4.60;99.90;;;4.12;90.09;96864.16;5039922;28;20453;-69
2023/03/27 02:52:45;;;;;;;0.40;0.40;;;4.50;99.90;;;3.87;90.62;96864.75;5048437;28;20449;-69
2023/03/27 02:55:19;;;;;;;0.93;0.53;;;4.40;99.90;;;3.78;91.07;96868.59;5040211;28;22771;-69
2023/03/27 02:57:52;;;;;;;0.50;0.50;;;4.30;99.90;;;3.87;91.32;96872.75;5043998;28;20931;-70
2023/03/27 03:00:24;;;;;;;0.80;0.80;;;4.30;99.90;;;3.74;90.99;96888.75;5050612;28;20454;-69
2023/03/27 03:02:58;;;;;;;1.07;0.67;;;4.30;99.90;;;3.78;90.97;96876.63;5054603;28;20467;-69
2023/03/27 03:05:26;;;;;;;1.53;0.60;;;4.20;99.90;;;3.68;91.30;96893.84;5046373;28;20464;-70
2023/03/27 03:07:57;;;;;;;0.60;0.60;;;4.10;99.90;;;3.69;91.02;96890.13;5052576;28;20464;-69
2023/03/27 03:10:24;;;;;;;0.70;0.60;;;4.10;99.90;;;3.66;91.35;96919.13;5048868;28;20446;-71
2023/03/27 03:12:53;;;;;;;0.80;0.80;;;4.10;99.90;;;3.40;91.14;96876.03;5048826;28;20448;-70
2023/03/27 03:15:20;;;;;;;1.00;0.70;;;4.10;99.90;;;3.71;91.83;96927.34;5042719;28;20454;-70
2023/03/27 03:17:47;;;;;;;1.20;0.77;;;4.10;99.90;;;3.66;90.86;96937.81;5040827;28;20461;-69
2023/03/27 03:20:15;;;;;;;1.40;1.00;;;4.10;99.90;;;3.37;91.51;96903.13;5044211;28;20463;-70
2023/03/27 03:22:43;;;;;;;0.97;0.83;;;4.10;99.90;;;3.57;91.47;96965.69;5046467;28;20846;-70
2023/03/27 03:25:10;;;;;;;1.50;1.40;;;4.10;99.90;;;3.62;91.10;96972.09;5044555;28;20469;-70
2023/03/27 03:27:40;;;;;;;2.13;1.13;;;4.10;99.90;;;3.75;91.85;96967.88;5057233;28;20462;-72
2023/03/27 03:30:11;;;;;;;1.10;1.00;;;4.10;99.90;;;3.82;90.73;96971.38;5039866;28;20546;-70
2023/03/27 03:32:38;;;;;;;1.27;1.17;;;4.10;99.90;;;3.73;90.88;96983.28;5042471;28;21112;-70
2023/03/27 03:35:07;;;;;;;1.40;1.30;;;4.00;99.90;;;3.65;91.43;96984.25;5040332;28;20584;-70
2023/03/27 03:37:37;;;;;;;2.53;2.23;;;4.00;99.90;;;3.59;91.91;96996.56;5049410;28;20504;-70
2023/03/27 03:40:10;;;;;;;2.20;1.80;;;4.00;99.90;;;3.85;92.13;96992.34;5044079;28;20450;-70
2023/03/27 03:42:44;;;;;;;1.83;1.50;;;4.10;99.90;;;3.61;92.45;96996.34;5048744;28;20448;-70
2023/03/27 03:45:13;;;;;;;2.93;1.77;;;4.10;99.90;;;3.63;92.29;97027.19;5046357;28;21271;-71
2023/03/27 03:47:40;;;;;;;2.63;2.43;;;4.00;99.90;;;3.69;92.22;97022.91;5058491;28;20449;-71
2023/03/27 03:50:09;;;;;;;2.37;2.13;;;4.00;99.90;;;3.69;91.71;97029.06;5047999;28;20447;-70
2023/03/27 03:52:36;;;;;;;3.53;2.00;;;4.10;99.90;;;3.77;92.23;97035.28;5042555;28;20454;-70
2023/03/27 03:55:05;;;;;;;3.50;2.50;;;4.10;99.90;;;3.78;92.20;97047.63;5051021;28;20519;-70
2023/03/27 03:57:32;;;;;;;3.70;2.60;;;4.10;99.90;;;3.70;92.17;97048.59;5061878;28;20786;-70
2023/03/27 04:00:00;;;;;;;3.57;2.70;;;4.10;99.90;;;3.68;92.30;97054.13;5050715;28;20537;-70
2023/03/27 04:02:28;;;;;;;3.10;2.80;;;4.10;99.90;;;3.84;92.74;97073.56;5058940;28;20495;-72
2023/03/27 04:04:56;;;;;;;4.53;3.70;;;4.10;99.90;;;3.74;93.45;97067.75;5048480;28;20456;-71
2023/03/27 04:07:24;;;;;;;5.43;4.33;;;4.10;99.90;;;3.71;92.78;97084.16;5048871;28;20565;-71
2023/03/27 04:09:52;;;;;;;7.57;4.20;;;4.10;99.90;;;3.57;92.88;97100.09;5048662;28;20464;-70
2023/03/27 04:12:19;;;;;;;9.80;5.53;;;4.00;99.90;;;3.52;92.56;97102.50;5047559;28;20460;-70
2023/03/27 04:14:47;;;;;;;7.27;4.93;;;4.00;99.90;;;3.49;92.09;97113.56;5048675;28;20453;-69
2023/03/27 04:17:14;;;;;;;7.40;5.70;;;3.90;99.90;;;3.50;92.11;97117.91;5061595;28;20460;-71
2023/03/27 04:19:45;;;;;;;7.97;5.73;;;3.90;99.90;;;3.56;91.62;97135.81;5037810;28;20455;-70
2023/03/27 04:22:12;;;;;;;12.53;6.50;;;3.80;99.90;;;3.46;92.05;97120.13;5047994;28;20534;-69
2023/03/27 04:24:43;;;;;;;11.33;7.53;;;3.90;99.90;;;3.58;93.10;97128.47;5047938;28;20695;-70
2023/03/27 04:27:11;;;;;;;15.77;8.20;;;3.80;99.90;;;3.48;92.49;97135.97;5048552;28;20497;-71
2023/03/27 04:29:42;;;;;;;10.00;7.20;;;3.90;99.90;;;3.39;93.44;97125.41;5052456;28;20507;-70
2023/03/27 04:32:09;;;;;;;17.33;8.50;;;3.80;99.90;;;3.25;92.23;97144.97;5041613;28;20552;-70
2023/03/27 04:34:39;;;;;;;17.73;7.80;;;3.80;99.90;;;3.16;93.25;97151.47;5060102;28;20466;-69
2023/03/27 04:37:07;;;;;;;11.93;8.43;;;3.60;99.90;;;2.68;92.67;97091.44;5042763;28;20457;-70
2023/03/27 04:39:38;;;;;;;12.80;8.43;;;3.60;99.90;;;3.03;93.15;97158.31;5052040;28;20785;-70
2023/03/27 04:42:06;;;;;;;17.70;7.30;;;3.40;99.90;;;3.01;93.31;97168.34;5040643;28;20500;-70
2023/03/27 04:44:34;;;;;;;13.63;9.90;;;3.40;99.90;;;3.03;93.34;97169.00;5052579;28;20460;-70
2023/03/27 04:47:01;;;;;;;12.67;8.53;;;3.40;99.90;;;3.03;93.03;97179.66;5044648;28;20895;-70
2023/03/27 04:49:37;;;;;;;16.53;9.17;;;3.40;99.90;;;3.10;92.68;97193.09;5044839;28;20441;-70
2023/03/27 04:52:06;;;;;;;11.50;8.13;;;3.40;99.90;;;3.01;92.61;97179.03;5060615;28;20453;-71
2023/03/27 04:54:34;;;;;;;21.37;8.87;;;3.50;99.90;;;2.91;92.56;97197.16;5051548;28;20461;-70
2023/03/27 04:57:02;;;;;;;21.90;9.07;;;3.40;99.90;;;2.72;92.39;97183.41;5039750;28;20458;-71
2023/03/27 04:59:30;;;;;;;16.90;8.60;;;3.30;99.90;;;2.85;92.44;97205.94;5037842;28;20469;-72
2023/03/27 05:01:58;;;;;;;17.73;8.57;;;3.30;99.90;;;2.89;92.83;97229.41;5043499;28;20461;-70
2023/03/27 05:04:26;;;;;;;20.67;9.80;;;3.30;99.90;;;2.65;91.57;97193.13;5024164;28;20461;-69
2023/03/27 05:06:54;;;;;;;18.10;9.20;;;3.40;99.90;;;3.02;92.11;97236.72;5042590;28;20474;-70
2023/03/27 05:09:24;;;;;;;17.53;9.10;;;3.30;99.90;;;3.00;91.59;97241.44;5044595;28;20820;-69
2023/03/27 05:11:52;;;;;;;17.27;8.83;;;3.40;99.90;;;3.09;90.73;97253.66;5037553;28;20468;-67
2023/03/27 05:14:22;;;;;;;13.60;7.10;;;3.40;99.90;;;3.06;90.75;97251.34;5033399;28;21700;-67
2023/03/27 05:16:51;;;;;;;12.87;7.97;;;3.40;99.90;;;3.02;90.03;97260.75;5038656;28;20491;-69
2023/03/27 05:19:19;;;;;;;16.20;8.40;;;3.40;99.90;;;3.02;90.16;97257.25;5047860;28;20868;-68
2023/03/27 05:21:46;;;;;;;16.90;7.77;;;3.40;99.90;;;2.95;90.19;97282.00;5052847;28;20528;-67
2023/03/27 05:24:15;;;;;;;12.63;7.47;;;3.40;99.90;;;2.98;90.31;97294.97;5037623;28;20454;-67
2023/03/27 05:26:43;;;;;;;11.17;7.50;;;3.40;99.90;;;2.76;90.55;97318.06;5039324;28;20478;-66
2023/03/27 05:29:10;;;;;;;11.57;8.00;;;3.30;99.90;;;2.45;90.81;97246.22;5045080;28;20466;-66
2023/03/27 05:31:38;;;;;;;12.40;7.40;;;3.20;99.90;;;2.33;91.38;97237.81;5042373;28;20453;-67
2023/03/27 05:34:05;;;;;;;13.33;8.30;;;3.20;99.90;;;2.82;91.67;97328.03;5048737;28;20480;-67
2023/03/27 05:36:34;;;;;;;17.43;8.23;;;3.20;99.90;;;2.86;91.29;97322.31;5044524;28;20461;-67
2023/03/27 05:39:01;;;;;;;15.20;7.83;;;3.20;99.90;;;2.72;91.71;97314.13;5050464;28;20461;-67
2023/03/27 05:41:29;;;;;;;10.40;7.77;;;3.20;99.90;;;2.80;91.28;97332.69;5049563;28;21230;-66
2023/03/27 05:43:57;;;;;;;12.13;8.70;;;3.20;99.90;;;2.75;91.28;97331.59;5047428;28;20468;-69
2023/03/27 05:46:25;;;;;;;8.60;6.73;;;3.20;99.90;;;2.78;90.88;97341.91;5051683;28;20524;-68
2023/03/27 05:48:52;;;;;;;10.93;7.70;;;3.20;99.90;;;2.90;90.79;97351.13;5050722;28;20609;-66
2023/03/27 05:51:19;;;;;;;18.17;7.67;;;3.20;99.90;;;2.39;90.38;97255.78;5063588;28;20535;-66
2023/03/27 05:53:46;;;;;;;12.33;8.20;;;3.30;99.90;;;2.94;90.46;97367.59;5046974;28;20477;-67
2023/03/27 05:56:13;;;;;;;14.93;7.93;;;3.30;99.90;;;2.82;90.11;97378.72;5041472;28;21048;-69
2023/03/27 05:58:41;;;;;;;13.87;6.50;;;3.30;99.90;;;2.83;89.87;97390.22;5043417;28;20926;-67
2023/03/27 06:01:10;;;;;;;12.37;6.80;;;3.30;99.90;;;2.88;89.86;97389.66;5044594;28;20540;-66
2023/03/27 06:03:38;;;;;;;10.23;6.37;;;3.20;99.90;;;2.75;88.36;97395.63;5042454;28;21230;-65
2023/03/27 06:06:09;;;;;;;8.73;5.90;;;3.10;99.90;;;2.25;89.32;97353.34;5039047;28;20534;-63
2023/03/27 06:08:37;;;;;;;11.87;7.13;;;3.00;99.90;;;2.74;89.48;97404.66;5037977;28;20476;-62
2023/03/27 06:11:09;;;;;;;12.13;8.60;;;3.00;99.90;;;2.86;89.17;97407.72;5033984;28;20462;-63
2023/03/27 06:13:37;;;;;;;10.73;7.20;;;3.10;99.90;;;2.61;89.25;97415.91;5039978;28;20552;-61
2023/03/27 06:16:05;;;;;;;11.57;7.87;;;3.10;99.90;;;2.80;89.45;97431.41;5046430;28;20464;-63
2023/03/27 06:18:34;;;;;;;13.63;7.03;;;3.10;99.90;;;2.72;89.43;97436.00;5044497;28;21035;-62
2023/03/27 06:21:02;;;;;;;12.83;8.03;;;3.10;99.90;;;2.71;89.41;97443.19;5060028;28;20469;-63
2023/03/27 06:23:30;;;;;;;10.70;7.60;;;3.10;99.90;;;2.79;89.48;97451.09;5035713;28;20450;-63
2023/03/27 06:25:58;;;;;;;14.37;7.97;;;3.10;99.90;;;2.83;89.65;97457.75;5038937;28;21578;-65
2023/03/27 06:28:25;;;;;;;19.60;9.17;;;3.10;99.90;;;2.90;89.10;97451.69;5044212;28;21252;-62
2023/03/27 06:30:53;;;;;;;11.07;6.73;;;3.20;99.90;;;2.83;87.99;97440.91;5039548;28;20527;-63
2023/03/27 06:33:20;;;;;;;15.37;8.10;;;3.30;99.90;;;3.00;85.85;97462.94;5032215;28;20487;-64
2023/03/27 06:35:49;;;;;;;8.70;7.10;;;3.30;99.90;;;2.98;86.07;97471.13;5033287;28;20470;-68
2023/03/27 06:38:17;;;;;;;12.67;7.27;;;3.30;98.90;;;2.88;85.08;97485.75;5048664;28;20450;-66
2023/03/27 06:40:46;;;;;;;13.00;7.63;;;3.30;96.20;;;2.99;85.96;97474.63;5040986;28;20998;-66
2023/03/27 06:43:17;;;;;;;10.33;6.20;;;3.30;97.40;;;3.15;83.78;97491.53;5036167;28;20464;-68
2023/03/27 06:45:47;;;;;;;8.23;6.03;;;3.50;96.60;;;3.03;83.51;97499.94;5052828;28;20449;-66
2023/03/27 06:48:15;;;;;;;15.90;7.90;;;3.40;94.10;;;3.21;83.58;97490.78;5043252;28;20505;-67
2023/03/27 06:50:43;;;;;;;12.87;6.20;;;3.50;95.20;;;3.05;81.94;97503.28;5062757;28;20459;-67
2023/03/27 06:53:15;;;;;;;10.20;6.93;;;3.50;92.50;;;3.26;82.81;97499.91;5048075;28;20463;-67
2023/03/27 06:55:42;;;;;;;10.68;8.10;;;3.60;93.80;;;3.22;81.19;97519.16;5036619;28;20451;-65
2023/03/27 06:58:13;;;;;;;10.27;8.50;;;3.60;91.90;;;3.38;81.53;97523.50;5040155;28;20274;-66
2023/03/27 07:00:41;;;;;;;10.70;7.30;;;3.70;92.70;;;3.36;81.26;97533.56;5045106;28;20464;-65
2023/03/27 07:03:10;;;;;;;12.20;6.33;;;3.70;91.60;;;3.38;79.03;97535.00;5045387;28;20477;-65
2023/03/27 07:05:40;;;;;;;13.40;6.70;;;3.80;90.40;;;3.06;79.99;97528.94;5036413;28;20524;-65
2023/03/27 07:08:11;;;;;;;11.90;6.20;;;3.60;90.30;;;3.20;78.90;97563.88;5041846;28;20505;-65
2023/03/27 07:10:39;;;;;;;12.63;5.57;;;3.60;90.00;;;3.04;79.51;97557.66;5040094;28;20958;-67
2023/03/27 07:13:07;;;;;;;8.13;5.40;;;3.50;89.60;;;2.83;79.75;97542.31;5042462;28;20453;-66
2023/03/27 07:15:35;;;;;;;11.53;5.60;;;3.40;90.00;;;2.92;79.25;97561.75;5053211;28;20456;-65
2023/03/27 07:18:05;;;;;;;6.50;5.73;;;3.30;90.00;;;2.86;79.10;97549.13;5046358;28;20476;-65
2023/03/27 07:20:34;;;;;;;6.43;4.70;;;3.30;89.30;;;2.94;79.13;97567.75;5043011;28;20468;-66
2023/03/27 07:23:03;;;;;;;9.87;5.80;;;3.30;90.00;;;2.75;78.05;97593.06;5041416;28;20466;-65
2023/03/27 07:25:36;;;;;;;11.23;4.97;;;3.20;87.20;;;2.57;78.28;97585.31;5046587;28;20445;-65
2023/03/27 07:28:06;;;;;;;7.47;5.93;;;3.10;87.10;;;2.60;79.10;97600.97;5049890;28;20476;-66
2023/03/27 07:30:33;;;;;;;11.13;5.90;;;3.00;88.70;;;2.54;78.76;97603.34;5046624;28;20537;-65
2023/03/27 07:33:01;;;;;;;10.33;5.17;;;3.00;88.30;;;2.59;78.84;97596.66;5039387;28;20457;-65
2023/03/27 07:35:30;;;;;;;9.80;5.63;;;3.00;90.00;;;2.57;77.66;97617.31;5040335;28;20457;-66
2023/03/27 07:37:57;;;;;;;7.00;4.30;;;3.10;87.50;;;2.51;77.96;97625.03;5040492;28;20545;-64
2023/03/27 07:40:25;;;;;;;7.90;4.17;;;3.00;87.50;;;2.50;77.15;97628.69;5029139;28;20460;-65
2023/03/27 07:42:54;;;;;;;10.40;4.93;;;2.90;86.20;;;2.54;77.50;97632.69;5031863;28;20476;-67
2023/03/27 07:45:23;;;;;;;9.17;5.13;;;3.00;86.90;;;2.79;78.72;97643.22;5057214;28;20805;-65
2023/03/27 07:47:51;;;;;;;14.43;5.00;;;3.10;89.10;;;3.13;76.61;97643.03;5040557;28;20469;-65
2023/03/27 07:50:20;;;;;;;8.23;4.27;;;3.30;88.00;;;3.15;73.84;97646.38;5065609;28;20523;-66
2023/03/27 07:52:48;;;;;;;9.97;3.67;;;3.60;82.80;;;3.56;73.40;97653.25;5047294;28;20450;-72
2023/03/27 07:55:18;;;;;;;3.73;3.40;;;3.70;82.30;;;3.33;69.93;97680.78;5042617;28;20460;-66
2023/03/27 07:57:47;;;;;;;4.40;2.60;;;3.80;78.70;;;3.33;70.68;97675.44;5028829;28;22775;-66
2023/03/27 08:00:21;;;;;;;5.97;3.40;;;3.70;78.60;;;3.17;70.46;97673.72;5034268;28;20506;-64
2023/03/27 08:02:50;;;;;;;4.67;3.00;;;3.70;78.30;;;3.09;70.06;97691.44;5040963;28;20454;-65
2023/03/27 08:05:19;;;;;;;6.60;2.37;;;3.60;77.80;;;2.98;69.11;97705.19;5032863;28;20472;-66
2023/03/27 08:07:46;;;;;;;2.60;2.33;;;3.40;76.60;;;2.77;69.44;97711.13;5035740;28;20559;-65
2023/03/27 08:10:15;;;;;;;5.87;2.50;;;3.30;76.60;;;2.89;69.07;97706.22;5041991;28;21002;-66
2023/03/27 08:12:42;;;;;;;7.10;2.57;;;3.30;76.80;;;3.02;67.94;97706.50;5043447;28;20510;-64
2023/03/27 08:15:10;;;;;;;7.10;2.43;;;3.40;76.50;;;3.18;66.76;97710.09;5047313;28;20453;-67
2023/03/27 08:17:39;;;;;;;3.10;1.97;;;3.50;75.30;;;3.24;66.38;97709.38;5046926;28;20468;-64
2023/03/27 08:20:08;;;;;;;3.50;1.70;;;3.60;74.70;;;3.67;66.45;97715.09;5042744;28;20557;-65
2023/03/27 08:22:37;;;;;;;3.93;1.30;;;3.90;75.60;;;3.39;62.26;97715.63;5045656;28;20455;-64
2023/03/27 08:25:06;;;;;;;3.70;1.47;;;3.90;71.40;;;3.40;62.69;97721.81;5033287;28;20507;-63
2023/03/27 08:27:34;;;;;;;2.97;1.57;;;3.90;71.20;;;3.63;63.09;97718.28;5041633;28;20482;-65
2023/03/27 08:30:02;;;;;;;3.63;2.00;;;4.00;71.90;;;3.89;62.23;97712.59;5041684;28;20477;-63
2023/03/27 08:32:30;;;;;;;6.10;1.70;;;4.30;72.20;;;3.88;61.82;97726.97;5033170;28;21390;-64
2023/03/27 08:34:59;;;;;;;8.80;2.10;;;4.30;70.90;;;3.88;61.70;97732.31;5037560;28;20466;-65
2023/03/27 08:37:26;;;;;;;2.73;1.63;;;4.30;70.70;;;4.09;61.75;97742.34;5041726;28;20453;-65
2023/03/27 08:39:57;;;;;;;2.40;1.47;;;4.40;71.20;;;4.12;58.88;97743.81;5045637;28;20476;-66
2023/03/27 08:42:35;;;;;;;1.70;0.80;;;4.50;68.70;;;3.89;54.18;97744.69;5042233;28;20577;-66
2023/03/27 08:45:10;;;;;;;1.50;1.10;;;4.40;62.90;;;3.90;53.63;97767.72;5039925;28;20448;-64
2023/03/27 08:47:44;;;;;;;3.13;1.17;;;4.40;59.90;;;3.95;53.22;97753.81;5040565;28;20476;-64
2023/03/27 08:50:30;;;;;;;3.67;1.17;;;4.40;59.50;;;4.08;52.00;97758.56;5037961;28;20551;-64
2023/03/27 08:52:58;;;;;;;1.10;0.90;;;4.50;57.20;;;4.03;50.66;97768.97;5042415;28;20540;-69
2023/03/27 08:55:34;;;;;;;2.70;1.07;;;4.50;54.80;;;3.99;50.03;97770.31;5041037;28;20449;-64
2023/03/27 08:58:01;;;;;;;0.80;0.60;;;4.50;53.70;;;4.23;49.49;97782.66;5031567;28;20460;-66
2023/03/27 09:00:37;;;;;;;3.30;1.10;;;4.70;53.80;;;4.71;51.18;97773.53;5039240;28;21144;-65
2023/03/27 09:03:14;;;;;;;1.20;0.80;;;4.90;55.70;;;4.76;47.64;97787.16;5026341;28;20461;-75
2023/03/27 09:05:50;;;;;;;3.30;1.00;;;5.20;52.40;;;4.98;47.78;97788.09;5038793;28;20516;-68
2023/03/27 09:08:31;;;;;;;3.53;1.00;;;5.40;52.20;;;5.23;48.42;97795.81;5044851;28;20469;-66
2023/03/27 09:11:11;;;;;;;1.47;0.80;;;5.50;52.60;;;5.07;48.76;97803.03;5035571;28;20457;-66
2023/03/27 09:13:44;;;;;;;2.40;0.90;;;5.50;51.60;;;5.11;47.68;97806.19;5046182;28;20450;-66
2023/03/27 09:16:20;;;;;;;3.50;0.60;;;5.50;50.90;;;5.25;47.50;97807.22;5057866;28;20466;-67
2023/03/27 09:18:55;;;;;;;4.00;1.17;;;5.60;51.60;;;5.34;47.82;97806.06;5056755;28;20452;-66
2023/03/27 09:21:35;;;;;;;1.63;1.00;;;5.60;51.50;;;5.71;48.29;97803.41;5042913;28;20461;-66
2023/03/27 09:24:10;;;;;;;3.13;1.10;;;5.90;52.60;;;5.75;47.68;97812.72;5053463;28;20527;-67
2023/03/27 09:26:38;;;;;;;3.70;1.50;;;6.10;51.80;;;5.55;47.90;97823.25;5068209;28;20456;-67
2023/03/27 09:29:16;;;;;;;1.30;0.83;;;6.00;51.30;;;4.81;46.31;97840.97;5054481;28;20477;-65
2023/03/27 09:31:47;;;;;;;4.43;0.80;;;5.40;49.40;;;4.54;48.47;97852.09;5031333;28;20525;-66
2023/03/27 09:34:19;;;;;;;3.53;1.17;;;5.00;50.00;;;4.60;48.35;97847.03;5043425;28;20454;-65
2023/03/27 09:36:48;;;;;;;2.90;1.00;;;5.00;50.60;;;4.86;46.55;97845.78;5039809;28;20457;-66
2023/03/27 09:39:21;;;;;;;2.60;0.80;;;5.20;50.00;;;5.09;47.23;97843.03;5042418;28;20545;-66
2023/03/27 09:41:51;;;;;;;3.40;1.27;;;5.40;50.00;;;5.78;47.58;97846.38;5041896;28;20459;-67
2023/03/27 09:44:24;;;;;;;5.37;0.90;;;5.80;51.00;;;5.85;46.88;97852.66;5044912;28;20453;-66
2023/03/27 09:46:57;;;;;;;3.00;1.10;;;6.10;50.20;;;5.56;46.29;97848.19;5046196;28;20453;-68
2023/03/27 09:49:26;;;;;;;2.90;0.87;;;6.00;50.00;;;5.39;47.55;97851.91;5039729;28;20528;-67
2023/03/27 09:51:57;;;;;;;3.43;1.20;;;5.80;50.00;;;5.36;46.71;97867.53;5039969;28;20461;-67
2023/03/27 09:54:27;;;;;;;2.83;0.80;;;5.70;49.60;;;5.43;46.05;97857.72;5047569;28;20463;-66
2023/03/27 09:57:00;;;;;;;3.23;0.80;;;5.80;49.10;;;5.86;45.27;97858.84;5044262;28;21322;-66
2023/03/27 09:59:32;;;;;;;2.60;0.80;;;6.00;48.80;;;5.79;46.09;97864.13;5049986;28;20452;-67
2023/03/27 10:02:09;;;;;;;3.30;0.93;;;6.00;49.70;;;5.63;47.05;97867.88;5060109;28;21143;-66
2023/03/27 10:04:37;;;;;;;1.93;0.80;;;6.10;50.30;;;4.93;46.81;97865.47;5041609;28;20456;-66
2023/03/27 10:07:09;;;;;;;2.63;0.90;;;5.60;49.20;;;4.75;47.70;97897.94;5040953;28;20486;-67
2023/03/27 10:09:39;;;;;;;2.23;1.00;;;5.30;49.80;;;4.52;48.60;97878.22;5044419;28;20520;-66
2023/03/27 10:12:16;;;;;;;4.67;1.40;;;5.00;50.00;;;4.90;46.33;97876.53;5038954;28;20455;-66
2023/03/27 10:14:46;;;;;;;4.13;1.00;;;5.20;49.40;;;5.47;46.99;97874.25;5039544;28;20458;-67
2023/03/27 10:17:22;;;;;;;1.93;0.97;;;5.60;49.50;;;5.87;45.73;97896.19;5058342;28;20503;-67
2023/03/27 10:19:53;;;;;;;2.73;1.10;;;6.10;49.00;;;5.61;44.30;97864.50;5058246;28;20932;-67
2023/03/27 10:22:29;;;;;;;2.73;0.63;;;6.10;47.60;;;5.80;44.78;97882.72;5041314;28;20591;-70
2023/03/27 10:25:03;;;;;;;4.30;0.73;;;6.10;47.80;;;5.92;44.06;97858.91;5047734;28;20480;-73
2023/03/27 10:27:33;;;;;;;1.93;1.10;;;6.30;47.70;;;5.48;43.56;97892.00;5044141;28;20471;-72
2023/03/27 10:30:00;;;;;;;2.53;0.80;;;6.00;46.70;;;5.95;42.96;97877.31;5052946;28;20446;-71
2023/03/27 10:32:44;;;;;;;2.27;0.90;;;6.10;46.30;;;6.33;42.98;97888.88;5037440;28;20466;-75
2023/03/27 10:35:25;;;;;;;1.37;0.70;;;6.60;47.00;;;6.26;42.79;97885.28;5057434;28;20454;-72
2023/03/27 10:37:55;;;;;;;3.13;0.77;;;6.60;46.40;;;5.89;43.83;97885.28;5041880;28;21302;-76
2023/03/27 10:40:26;;;;;;;1.67;0.70;;;6.30;46.70;;;5.48;45.85;97892.00;5033958;28;20458;-72
2023/03/27 10:42:56;;;;;;;4.17;0.90;;;6.10;47.80;;;5.74;46.57;97906.75;5039328;28;20462;-73
2023/03/27 10:45:25;;;;;;;1.93;0.90;;;6.00;48.60;;;5.82;46.37;97914.69;5041319;28;20458;-76
2023/03/27 10:47:57;;;;;;;3.27;0.87;;;6.20;48.50;;;6.11;44.50;97912.19;5041927;28;20495;-74